sensor_id;sensor_type;location;lat;lon;timestamp;pressure;altitude;pressure_sealevel;temperature;humidity
29467;BME280;60968;37.490;-122.288;2023-02-15T00:02:06;98688.69;;;8.82;64.38
29467;BME280;60968;37.490;-122.288;2023-02-15T00:05:08;98689.56;;;8.82;65.27
29467;BME280;60968;37.490;-122.288;2023-02-15T00:08:09;98686.13;;;8.79;65.48
29467;BME280;60968;37.490;-122.288;2023-02-15T00:11:12;98680.28;;;8.61;66.10
29467;BME280;60968;37.490;-122.288;2023-02-15T00:14:19;98683.66;;;8.66;66.70
29467;BME280;60968;37.490;-122.288;2023-02-15T00:17:21;98676.97;;;8.50;67.20
29467;BME280;60968;37.490;-122.288;2023-02-15T00:20:22;98679.59;;;8.40;68.25
29467;BME280;60968;37.490;-122.288;2023-02-15T00:23:22;98670.22;;;8.30;68.90
29467;BME280;60968;37.490;-122.288;2023-02-15T00:26:24;98667.81;;;8.08;69.80
29467;BME280;60968;37.490;-122.288;2023-02-15T00:29:25;98658.44;;;7.94;71.37
29467;BME280;60968;37.490;-122.288;2023-02-15T00:32:26;98669.81;;;7.77;72.64
29467;BME280;60968;37.490;-122.288;2023-02-15T00:35:27;98661.25;;;7.69;73.76
29467;BME280;60968;37.490;-122.288;2023-02-15T00:38:29;98665.59;;;7.68;75.52
29467;BME280;60968;37.490;-122.288;2023-02-15T00:41:31;98676.78;;;7.72;75.91
29467;BME280;60968;37.490;-122.288;2023-02-15T00:44:32;98668.28;;;7.54;76.93
29467;BME280;60968;37.490;-122.288;2023-02-15T00:47:34;98673.44;;;7.58;77.47
29467;BME280;60968;37.490;-122.288;2023-02-15T00:50:35;98667.38;;;7.59;78.14
29467;BME280;60968;37.490;-122.288;2023-02-15T00:53:36;98677.00;;;7.46;78.70
29467;BME280;60968;37.490;-122.288;2023-02-15T00:56:38;98687.34;;;7.46;79.81
29467;BME280;60968;37.490;-122.288;2023-02-15T00:59:38;98685.63;;;7.46;79.84
29467;BME280;60968;37.490;-122.288;2023-02-15T01:02:39;98689.94;;;7.47;80.86
29467;BME280;60968;37.490;-122.288;2023-02-15T01:05:41;98695.13;;;7.47;80.77
29467;BME280;60968;37.490;-122.288;2023-02-15T01:08:43;98694.25;;;7.48;79.95
29467;BME280;60968;37.490;-122.288;2023-02-15T01:11:46;98689.13;;;7.37;79.30
29467;BME280;60968;37.490;-122.288;2023-02-15T01:14:47;98677.94;;;7.32;79.53
29467;BME280;60968;37.490;-122.288;2023-02-15T01:17:48;98690.88;;;7.32;78.95
29467;BME280;60968;37.490;-122.288;2023-02-15T01:20:49;98688.38;;;7.17;75.47
29467;BME280;60968;37.490;-122.288;2023-02-15T01:23:50;98689.34;;;7.00;75.53
29467;BME280;60968;37.490;-122.288;2023-02-15T01:26:50;98692.81;;;6.96;75.80
29467;BME280;60968;37.490;-122.288;2023-02-15T01:29:51;98691.13;;;6.87;77.29
29467;BME280;60968;37.490;-122.288;2023-02-15T01:32:52;98692.03;;;6.76;79.85
29467;BME280;60968;37.490;-122.288;2023-02-15T01:35:58;98692.94;;;6.67;81.39
29467;BME280;60968;37.490;-122.288;2023-02-15T01:39:01;98687.75;;;6.62;82.08
29467;BME280;60968;37.490;-122.288;2023-02-15T01:42:03;98709.38;;;6.52;83.08
29467;BME280;60968;37.490;-122.288;2023-02-15T01:45:14;98697.28;;;6.48;81.57
29467;BME280;60968;37.490;-122.288;2023-02-15T01:48:24;98695.59;;;6.41;81.07
29467;BME280;60968;37.490;-122.288;2023-02-15T01:51:31;98699.09;;;6.27;80.39
29467;BME280;60968;37.490;-122.288;2023-02-15T01:54:34;98705.97;;;6.34;81.62
29467;BME280;60968;37.490;-122.288;2023-02-15T01:57:37;98708.53;;;6.41;81.12
29467;BME280;60968;37.490;-122.288;2023-02-15T02:00:39;98718.03;;;6.34;80.10
29467;BME280;60968;37.490;-122.288;2023-02-15T02:07:01;98721.50;;;5.96;82.12
29467;BME280;60968;37.490;-122.288;2023-02-15T02:10:04;98733.56;;;5.92;82.36
29467;BME280;60968;37.490;-122.288;2023-02-15T02:13:06;98742.19;;;5.88;82.77
29467;BME280;60968;37.490;-122.288;2023-02-15T02:16:26;98746.47;;;5.84;83.69
29467;BME280;60968;37.490;-122.288;2023-02-15T02:23:25;98751.66;;;5.80;84.03
29467;BME280;60968;37.490;-122.288;2023-02-15T02:36:55;98761.13;;;5.72;86.64
29467;BME280;60968;37.490;-122.288;2023-02-15T02:40:16;98762.00;;;5.77;86.79
29467;BME280;60968;37.490;-122.288;2023-02-15T02:43:32;98767.16;;;5.72;87.18
29467;BME280;60968;37.490;-122.288;2023-02-15T02:46:48;98774.06;;;5.75;85.76
29467;BME280;60968;37.490;-122.288;2023-02-15T02:50:05;98780.06;;;5.74;84.86
29467;BME280;60968;37.490;-122.288;2023-02-15T02:53:09;98786.13;;;5.73;83.43
29467;BME280;60968;37.490;-122.288;2023-02-15T02:56:24;98783.56;;;5.85;82.06
29467;BME280;60968;37.490;-122.288;2023-02-15T02:59:39;98786.13;;;5.82;82.48
29467;BME280;60968;37.490;-122.288;2023-02-15T03:02:45;98793.91;;;5.85;82.77
29467;BME280;60968;37.490;-122.288;2023-02-15T03:05:52;98808.53;;;5.75;83.50
29467;BME280;60968;37.490;-122.288;2023-02-15T03:09:08;98819.72;;;5.73;84.11
29467;BME280;60968;37.490;-122.288;2023-02-15T03:12:14;98818.00;;;5.75;84.37
29467;BME280;60968;37.490;-122.288;2023-02-15T03:15:20;98821.44;;;5.71;85.00
29467;BME280;60968;37.490;-122.288;2023-02-15T03:18:25;98824.03;;;5.69;85.70
29467;BME280;60968;37.490;-122.288;2023-02-15T03:25:02;98829.19;;;5.66;86.82
29467;BME280;60968;37.490;-122.288;2023-02-15T03:28:43;98830.03;;;5.63;86.81
29467;BME280;60968;37.490;-122.288;2023-02-15T03:31:49;98845.53;;;5.60;87.03
29467;BME280;60968;37.490;-122.288;2023-02-15T03:34:54;98853.28;;;5.57;86.32
29467;BME280;60968;37.490;-122.288;2023-02-15T03:37:59;98866.22;;;5.57;85.91
29467;BME280;60968;37.490;-122.288;2023-02-15T03:41:02;98868.78;;;5.56;84.50
29467;BME280;60968;37.490;-122.288;2023-02-15T03:44:10;98861.88;;;5.52;84.39
29467;BME280;60968;37.490;-122.288;2023-02-15T03:47:16;98872.22;;;5.52;84.15
29467;BME280;60968;37.490;-122.288;2023-02-15T03:50:29;98879.97;;;5.50;83.88
29467;BME280;60968;37.490;-122.288;2023-02-15T03:53:31;98880.81;;;5.47;83.48
29467;BME280;60968;37.490;-122.288;2023-02-15T03:56:34;98885.13;;;5.48;83.89
29467;BME280;60968;37.490;-122.288;2023-02-15T03:59:36;98888.56;;;5.49;83.98
29467;BME280;60968;37.490;-122.288;2023-02-15T04:02:44;98888.56;;;5.46;84.34
29467;BME280;60968;37.490;-122.288;2023-02-15T04:05:49;98889.41;;;5.45;84.41
29467;BME280;60968;37.490;-122.288;2023-02-15T04:08:50;98889.41;;;5.40;84.13
29467;BME280;60968;37.490;-122.288;2023-02-15T04:11:51;98889.38;;;5.37;83.93
29467;BME280;60968;37.490;-122.288;2023-02-15T04:14:52;98893.69;;;5.37;83.50
29467;BME280;60968;37.490;-122.288;2023-02-15T04:17:53;98905.75;;;5.38;82.62
29467;BME280;60968;37.490;-122.288;2023-02-15T04:20:53;98891.94;;;5.37;81.36
29467;BME280;60968;37.490;-122.288;2023-02-15T04:23:54;98904.91;;;5.43;81.32
29467;BME280;60968;37.490;-122.288;2023-02-15T04:26:55;98902.34;;;5.48;79.64
29467;BME280;60968;37.490;-122.288;2023-02-15T04:29:56;98917.00;;;5.50;79.01
29467;BME280;60968;37.490;-122.288;2023-02-15T04:32:57;98914.44;;;5.52;78.21
29467;BME280;60968;37.490;-122.288;2023-02-15T04:35:58;98923.06;;;5.56;77.91
29467;BME280;60968;37.490;-122.288;2023-02-15T04:38:59;98929.94;;;5.55;77.13
29467;BME280;60968;37.490;-122.288;2023-02-15T04:41:59;98932.53;;;5.54;76.43
29467;BME280;60968;37.490;-122.288;2023-02-15T04:45:02;98945.44;;;5.52;76.03
29467;BME280;60968;37.490;-122.288;2023-02-15T04:48:03;98951.50;;;5.54;76.12
29467;BME280;60968;37.490;-122.288;2023-02-15T04:51:07;98948.88;;;5.51;74.19
29467;BME280;60968;37.490;-122.288;2023-02-15T04:54:08;98955.78;;;5.55;72.84
29467;BME280;60968;37.490;-122.288;2023-02-15T04:57:09;98953.22;;;5.55;72.44
29467;BME280;60968;37.490;-122.288;2023-02-15T05:00:10;98955.81;;;5.58;71.70
29467;BME280;60968;37.490;-122.288;2023-02-15T05:03:11;98966.13;;;5.58;72.52
29467;BME280;60968;37.490;-122.288;2023-02-15T05:06:13;98966.13;;;5.54;72.12
29467;BME280;60968;37.490;-122.288;2023-02-15T05:09:14;98980.78;;;5.52;72.00
29467;BME280;60968;37.490;-122.288;2023-02-15T05:12:15;98982.47;;;5.49;71.93
29467;BME280;60968;37.490;-122.288;2023-02-15T05:15:16;98985.06;;;5.53;70.53
29467;BME280;60968;37.490;-122.288;2023-02-15T05:18:18;98986.78;;;5.52;70.14
29467;BME280;60968;37.490;-122.288;2023-02-15T05:21:19;98991.09;;;5.48;70.42
29467;BME280;60968;37.490;-122.288;2023-02-15T05:24:20;98990.19;;;5.45;70.05
29467;BME280;60968;37.490;-122.288;2023-02-15T05:27:22;98997.97;;;5.45;68.92
29467;BME280;60968;37.490;-122.288;2023-02-15T05:30:23;98999.69;;;5.46;68.43
29467;BME280;60968;37.490;-122.288;2023-02-15T05:33:24;98996.22;;;5.44;66.46
29467;BME280;60968;37.490;-122.288;2023-02-15T05:36:25;98997.97;;;5.49;66.75
29467;BME280;60968;37.490;-122.288;2023-02-15T05:39:26;99010.03;;;5.49;65.54
29467;BME280;60968;37.490;-122.288;2023-02-15T05:42:28;99013.47;;;5.45;64.49
29467;BME280;60968;37.490;-122.288;2023-02-15T05:45:29;99025.50;;;5.43;63.77
29467;BME280;60968;37.490;-122.288;2023-02-15T05:48:30;99028.97;;;5.43;63.50
29467;BME280;60968;37.490;-122.288;2023-02-15T05:51:33;99033.28;;;5.44;61.87
29467;BME280;60968;37.490;-122.288;2023-02-15T05:54:33;99037.56;;;5.44;62.42
29467;BME280;60968;37.490;-122.288;2023-02-15T05:57:35;99040.97;;;5.41;61.69
29467;BME280;60968;37.490;-122.288;2023-02-15T06:00:36;99040.97;;;5.40;61.66
29467;BME280;60968;37.490;-122.288;2023-02-15T06:03:37;99040.13;;;5.38;61.38
29467;BME280;60968;37.490;-122.288;2023-02-15T06:06:41;99046.97;;;5.36;61.28
29467;BME280;60968;37.490;-122.288;2023-02-15T06:09:42;99048.72;;;5.35;60.93
29467;BME280;60968;37.490;-122.288;2023-02-15T06:12:44;99049.56;;;5.36;60.95
29467;BME280;60968;37.490;-122.288;2023-02-15T06:15:46;99053.88;;;5.33;61.02
29467;BME280;60968;37.490;-122.288;2023-02-15T06:18:47;99045.28;;;5.35;60.76
29467;BME280;60968;37.490;-122.288;2023-02-15T06:21:48;99040.06;;;5.31;61.14
29467;BME280;60968;37.490;-122.288;2023-02-15T06:24:49;99034.03;;;5.31;61.59
29467;BME280;60968;37.490;-122.288;2023-02-15T06:27:50;99038.31;;;5.27;62.48
29467;BME280;60968;37.490;-122.288;2023-02-15T06:30:51;99056.41;;;5.29;62.09
29467;BME280;60968;37.490;-122.288;2023-02-15T06:33:52;99054.69;;;5.29;63.41
29467;BME280;60968;37.490;-122.288;2023-02-15T06:36:53;99071.03;;;5.25;63.09
29467;BME280;60968;37.490;-122.288;2023-02-15T06:39:54;99072.75;;;5.23;62.93
29467;BME280;60968;37.490;-122.288;2023-02-15T06:42:55;99078.75;;;5.21;63.80
29467;BME280;60968;37.490;-122.288;2023-02-15T06:45:55;99079.56;;;5.15;64.69
29467;BME280;60968;37.490;-122.288;2023-02-15T06:48:56;99087.25;;;5.10;65.13
29467;BME280;60968;37.490;-122.288;2023-02-15T06:51:57;99088.97;;;5.10;65.52
29467;BME280;60968;37.490;-122.288;2023-02-15T06:54:58;99088.09;;;5.08;65.73
29467;BME280;60968;37.490;-122.288;2023-02-15T06:57:59;99086.34;;;5.05;66.33
29467;BME280;60968;37.490;-122.288;2023-02-15T07:01:00;99094.13;;;5.08;67.32
29467;BME280;60968;37.490;-122.288;2023-02-15T07:04:00;99089.78;;;5.03;68.49
29467;BME280;60968;37.490;-122.288;2023-02-15T07:07:01;99096.69;;;5.04;68.06
29467;BME280;60968;37.490;-122.288;2023-02-15T07:10:03;99107.84;;;5.01;68.50
29467;BME280;60968;37.490;-122.288;2023-02-15T07:13:04;99111.25;;;5.00;68.43
29467;BME280;60968;37.490;-122.288;2023-02-15T07:16:04;99114.75;;;5.04;68.45
29467;BME280;60968;37.490;-122.288;2023-02-15T07:19:06;99116.44;;;5.03;68.39
29467;BME280;60968;37.490;-122.288;2023-02-15T07:22:08;99114.75;;;5.02;68.80
29467;BME280;60968;37.490;-122.288;2023-02-15T07:25:11;99126.75;;;5.00;69.63
29467;BME280;60968;37.490;-122.288;2023-02-15T07:28:12;99130.19;;;5.01;69.22
29467;BME280;60968;37.490;-122.288;2023-02-15T07:31:15;99126.75;;;4.98;69.71
29467;BME280;60968;37.490;-122.288;2023-02-15T07:34:16;99135.31;;;4.97;70.66
29467;BME280;60968;37.490;-122.288;2023-02-15T07:37:16;99137.09;;;5.00;70.39
29467;BME280;60968;37.490;-122.288;2023-02-15T07:40:17;99139.69;;;5.02;70.81
29467;BME280;60968;37.490;-122.288;2023-02-15T07:43:18;99131.91;;;4.98;70.24
29467;BME280;60968;37.490;-122.288;2023-02-15T07:46:20;99144.84;;;5.02;68.83
29467;BME280;60968;37.490;-122.288;2023-02-15T07:49:21;99151.72;;;5.00;68.42
29467;BME280;60968;37.490;-122.288;2023-02-15T07:52:22;99146.53;;;4.96;68.48
29467;BME280;60968;37.490;-122.288;2023-02-15T07:55:23;99157.72;;;4.98;68.17
29467;BME280;60968;37.490;-122.288;2023-02-15T07:58:24;99170.63;;;4.98;68.75
29467;BME280;60968;37.490;-122.288;2023-02-15T08:01:30;99182.69;;;4.96;67.66
29467;BME280;60968;37.490;-122.288;2023-02-15T08:04:31;99188.69;;;4.95;68.05
29467;BME280;60968;37.490;-122.288;2023-02-15T08:07:33;99192.94;;;4.93;68.06
29467;BME280;60968;37.490;-122.288;2023-02-15T08:10:35;99188.59;;;4.89;68.28
29467;BME280;60968;37.490;-122.288;2023-02-15T08:13:36;99192.91;;;4.87;68.49
29467;BME280;60968;37.490;-122.288;2023-02-15T08:19:43;99205.81;;;4.89;69.23
29467;BME280;60968;37.490;-122.288;2023-02-15T08:22:44;99213.59;;;4.90;68.18
29467;BME280;60968;37.490;-122.288;2023-02-15T08:25:45;99222.13;;;4.86;68.52
29467;BME280;60968;37.490;-122.288;2023-02-15T08:28:47;99222.97;;;4.85;67.68
29467;BME280;60968;37.490;-122.288;2023-02-15T08:31:53;99225.53;;;4.82;68.47
29467;BME280;60968;37.490;-122.288;2023-02-15T08:34:54;99228.13;;;4.84;66.37
29467;BME280;60968;37.490;-122.288;2023-02-15T08:37:56;99235.84;;;4.82;65.08
29467;BME280;60968;37.490;-122.288;2023-02-15T08:40:57;99235.78;;;4.76;66.47
29467;BME280;60968;37.490;-122.288;2023-02-15T08:43:59;99246.75;;;4.61;66.93
29467;BME280;60968;37.490;-122.288;2023-02-15T08:47:00;99238.03;;;4.51;66.40
29467;BME280;60968;37.490;-122.288;2023-02-15T08:50:01;99243.31;;;4.60;65.34
29467;BME280;60968;37.490;-122.288;2023-02-15T08:53:02;99252.91;;;4.69;63.56
29467;BME280;60968;37.490;-122.288;2023-02-15T08:56:03;99251.22;;;4.71;63.91
29467;BME280;60968;37.490;-122.288;2023-02-15T08:59:05;99254.50;;;4.61;65.54
29467;BME280;60968;37.490;-122.288;2023-02-15T09:02:09;99261.25;;;4.51;65.36
29467;BME280;60968;37.490;-122.288;2023-02-15T09:05:10;99265.53;;;4.47;65.04
29467;BME280;60968;37.490;-122.288;2023-02-15T09:08:11;99268.91;;;4.43;65.33
29467;BME280;60968;37.490;-122.288;2023-02-15T09:11:23;99270.63;;;4.44;66.31
29467;BME280;60968;37.490;-122.288;2023-02-15T09:14:26;99284.50;;;4.54;64.40
29467;BME280;60968;37.490;-122.288;2023-02-15T09:17:28;99281.13;;;4.57;64.08
29467;BME280;60968;37.490;-122.288;2023-02-15T09:20:29;99275.91;;;4.54;65.55
29467;BME280;60968;37.490;-122.288;2023-02-15T09:23:30;99282.69;;;4.47;65.64
29467;BME280;60968;37.490;-122.288;2023-02-15T09:26:33;99295.50;;;4.41;65.87
29467;BME280;60968;37.490;-122.288;2023-02-15T09:29:35;99297.91;;;4.28;67.00
29467;BME280;60968;37.490;-122.288;2023-02-15T09:32:36;99297.72;;;4.18;67.73
29467;BME280;60968;37.490;-122.288;2023-02-15T09:35:37;99298.63;;;4.20;65.98
29467;BME280;60968;37.490;-122.288;2023-02-15T09:38:38;99298.50;;;4.12;67.68
29467;BME280;60968;37.490;-122.288;2023-02-15T09:42:04;99299.22;;;4.03;67.27
29467;BME280;60968;37.490;-122.288;2023-02-15T09:48:26;99308.50;;;3.93;66.98
29467;BME280;60968;37.490;-122.288;2023-02-15T10:08:50;99289.53;;;4.43;57.31
29467;BME280;60968;37.490;-122.288;2023-02-15T10:12:16;99297.31;;;4.45;57.75
29467;BME280;60968;37.490;-122.288;2023-02-15T10:15:41;99298.09;;;4.41;57.56
29467;BME280;60968;37.490;-122.288;2023-02-15T10:19:17;99285.78;;;4.23;60.31
29467;BME280;60968;37.490;-122.288;2023-02-15T10:26:18;99303.22;;;3.86;62.76
29467;BME280;60968;37.490;-122.288;2023-02-15T10:29:39;99296.97;;;3.71;63.70
29467;BME280;60968;37.490;-122.288;2023-02-15T10:33:09;99301.00;;;3.58;63.95
29467;BME280;60968;37.490;-122.288;2023-02-15T10:36:39;99303.44;;;3.51;65.05
29467;BME280;60968;37.490;-122.288;2023-02-15T10:46:24;99302.72;;;3.58;63.90
29467;BME280;60968;37.490;-122.288;2023-02-15T10:49:51;99296.03;;;3.68;63.18
29467;BME280;60968;37.490;-122.288;2023-02-15T10:53:26;99300.47;;;3.76;62.18
29467;BME280;60968;37.490;-122.288;2023-02-15T10:57:02;99300.66;;;3.87;60.58
29467;BME280;60968;37.490;-122.288;2023-02-15T11:00:09;99301.72;;;3.99;61.34
29467;BME280;60968;37.490;-122.288;2023-02-15T11:06:30;99298.84;;;3.82;62.48
29467;BME280;60968;37.490;-122.288;2023-02-15T11:10:13;99297.94;;;3.80;61.02
29467;BME280;60968;37.490;-122.288;2023-02-15T11:13:18;99293.13;;;3.98;59.28
29467;BME280;60968;37.490;-122.288;2023-02-15T11:16:25;99297.53;;;4.05;59.52
29467;BME280;60968;37.490;-122.288;2023-02-15T11:19:37;99295.81;;;4.06;58.60
29467;BME280;60968;37.490;-122.288;2023-02-15T11:22:41;99306.16;;;4.07;58.06
29467;BME280;60968;37.490;-122.288;2023-02-15T11:25:45;99302.69;;;4.04;58.69
29467;BME280;60968;37.490;-122.288;2023-02-15T11:29:07;99308.81;;;4.12;57.74
29467;BME280;60968;37.490;-122.288;2023-02-15T11:32:33;99315.75;;;4.16;57.48
29467;BME280;60968;37.490;-122.288;2023-02-15T11:35:46;99312.19;;;4.08;59.13
29467;BME280;60968;37.490;-122.288;2023-02-15T11:38:52;99313.84;;;4.04;58.04
29467;BME280;60968;37.490;-122.288;2023-02-15T11:42:01;99310.50;;;4.10;56.43
29467;BME280;60968;37.490;-122.288;2023-02-15T11:45:38;99306.28;;;4.14;55.94
29467;BME280;60968;37.490;-122.288;2023-02-15T11:48:38;99319.06;;;4.09;56.62
29467;BME280;60968;37.490;-122.288;2023-02-15T11:51:43;99315.72;;;4.13;55.33
29467;BME280;60968;37.490;-122.288;2023-02-15T11:54:47;99323.19;;;3.98;58.97
29467;BME280;60968;37.490;-122.288;2023-02-15T11:58:04;99332.47;;;3.89;58.75
29467;BME280;60968;37.490;-122.288;2023-02-15T12:04:47;99332.66;;;3.99;54.25
29467;BME280;60968;37.490;-122.288;2023-02-15T12:07:57;99333.59;;;4.02;54.36
29467;BME280;60968;37.490;-122.288;2023-02-15T12:11:07;99334.53;;;4.09;53.49
29467;BME280;60968;37.490;-122.288;2023-02-15T12:14:11;99338.91;;;4.13;51.68
29467;BME280;60968;37.490;-122.288;2023-02-15T12:17:13;99343.44;;;4.25;50.68
29467;BME280;60968;37.490;-122.288;2023-02-15T12:23:22;99341.97;;;4.42;49.61
29467;BME280;60968;37.490;-122.288;2023-02-15T12:26:41;99341.13;;;4.42;49.27
29467;BME280;60968;37.490;-122.288;2023-02-15T12:30:48;99347.13;;;4.41;50.54
29467;BME280;60968;37.490;-122.288;2023-02-15T12:33:28;99350.50;;;4.37;51.32
29467;BME280;60968;37.490;-122.288;2023-02-15T12:36:32;99358.16;;;4.32;50.70
29467;BME280;60968;37.490;-122.288;2023-02-15T12:39:51;99362.38;;;4.28;50.47
29467;BME280;60968;37.490;-122.288;2023-02-15T12:42:55;99368.38;;;4.26;49.74
29467;BME280;60968;37.490;-122.288;2023-02-15T12:46:21;99370.06;;;4.24;49.34
29467;BME280;60968;37.490;-122.288;2023-02-15T12:49:26;99370.88;;;4.21;49.73
29467;BME280;60968;37.490;-122.288;2023-02-15T12:52:27;99370.09;;;4.27;49.25
29467;BME280;60968;37.490;-122.288;2023-02-15T12:55:28;99371.88;;;4.29;49.13
29467;BME280;60968;37.490;-122.288;2023-02-15T12:58:31;99374.44;;;4.29;49.18
29467;BME280;60968;37.490;-122.288;2023-02-15T13:01:33;99380.31;;;4.19;49.38
29467;BME280;60968;37.490;-122.288;2023-02-15T13:04:34;99384.59;;;4.20;48.73
29467;BME280;60968;37.490;-122.288;2023-02-15T13:07:36;99393.19;;;4.19;49.60
29467;BME280;60968;37.490;-122.288;2023-02-15T13:10:52;99391.34;;;4.12;51.44
29467;BME280;60968;37.490;-122.288;2023-02-15T13:13:56;99386.00;;;4.01;53.70
29467;BME280;60968;37.490;-122.288;2023-02-15T13:17:01;99392.56;;;3.85;54.62
29467;BME280;60968;37.490;-122.288;2023-02-15T13:20:16;99398.41;;;3.76;54.46
29467;BME280;60968;37.490;-122.288;2023-02-15T13:23:26;99404.34;;;3.72;55.92
29467;BME280;60968;37.490;-122.288;2023-02-15T13:26:31;99411.31;;;3.76;52.81
29467;BME280;60968;37.490;-122.288;2023-02-15T13:29:37;99410.72;;;3.90;50.81
29467;BME280;60968;37.490;-122.288;2023-02-15T13:32:39;99413.47;;;4.01;50.79
29467;BME280;60968;37.490;-122.288;2023-02-15T13:42:40;99421.69;;;3.81;53.72
29467;BME280;60968;37.490;-122.288;2023-02-15T13:49:23;99425.16;;;3.82;53.89
29467;BME280;60968;37.490;-122.288;2023-02-15T13:52:27;99420.78;;;3.77;54.21
29467;BME280;60968;37.490;-122.288;2023-02-15T13:55:47;99425.03;;;3.75;55.29
29467;BME280;60968;37.490;-122.288;2023-02-15T14:25:36;99445.63;;;3.74;57.07
29467;BME280;60968;37.490;-122.288;2023-02-15T14:28:46;99459.09;;;3.60;58.41
29467;BME280;60968;37.490;-122.288;2023-02-15T14:31:57;99454.75;;;3.58;58.41
29467;BME280;60968;37.490;-122.288;2023-02-15T14:35:02;99459.75;;;3.50;60.03
29467;BME280;60968;37.490;-122.288;2023-02-15T14:44:40;99466.25;;;3.34;61.05
29467;BME280;60968;37.490;-122.288;2023-02-15T14:48:33;99462.13;;;3.41;57.96
29467;BME280;60968;37.490;-122.288;2023-02-15T14:51:08;99454.81;;;3.61;56.16
29467;BME280;60968;37.490;-122.288;2023-02-15T14:54:50;99454.13;;;3.70;56.37
29467;BME280;60968;37.490;-122.288;2023-02-15T14:57:33;99461.81;;;3.68;58.14
29467;BME280;60968;37.490;-122.288;2023-02-15T15:00:38;99463.47;;;3.63;57.05
29467;BME280;60968;37.490;-122.288;2023-02-15T15:03:49;99471.31;;;3.69;57.24
29467;BME280;60968;37.490;-122.288;2023-02-15T15:07:14;99478.28;;;3.75;55.12
29467;BME280;60968;37.490;-122.288;2023-02-15T15:16:49;99496.44;;;3.81;57.92
29467;BME280;60968;37.490;-122.288;2023-02-15T15:26:24;99503.94;;;4.10;56.56
29467;BME280;60968;37.490;-122.288;2023-02-15T15:29:40;99501.69;;;4.28;56.70
29467;BME280;60968;37.490;-122.288;2023-02-15T15:49:58;99533.94;;;5.00;56.00
29467;BME280;60968;37.490;-122.288;2023-02-15T15:53:02;99539.38;;;5.15;54.33
29467;BME280;60968;37.490;-122.288;2023-02-15T15:56:06;99539.66;;;5.33;53.65
29467;BME280;60968;37.490;-122.288;2023-02-15T15:59:15;99541.56;;;5.47;53.37
29467;BME280;60968;37.490;-122.288;2023-02-15T16:02:18;99551.25;;;5.60;53.19
29467;BME280;60968;37.490;-122.288;2023-02-15T16:05:19;99547.97;;;5.74;53.46
29467;BME280;60968;37.490;-122.288;2023-02-15T16:11:31;99570.81;;;6.01;53.63
29467;BME280;60968;37.490;-122.288;2023-02-15T16:14:35;99577.03;;;6.17;52.50
29467;BME280;60968;37.490;-122.288;2023-02-15T16:17:38;99574.53;;;6.22;52.51
29467;BME280;60968;37.490;-122.288;2023-02-15T16:20:58;99583.28;;;6.33;52.95
29467;BME280;60968;37.490;-122.288;2023-02-15T16:24:38;99582.56;;;6.45;53.42
29467;BME280;60968;37.490;-122.288;2023-02-15T16:27:44;99581.00;;;6.59;52.07
29467;BME280;60968;37.490;-122.288;2023-02-15T16:30:46;99582.91;;;6.77;50.58
29467;BME280;60968;37.490;-122.288;2023-02-15T16:33:55;99581.41;;;6.98;50.24
29467;BME280;60968;37.490;-122.288;2023-02-15T16:37:15;99579.69;;;7.01;46.48
29467;BME280;60968;37.490;-122.288;2023-02-15T16:43:28;99587.78;;;7.37;46.20
29467;BME280;60968;37.490;-122.288;2023-02-15T16:46:40;99591.25;;;7.41;46.99
29467;BME280;60968;37.490;-122.288;2023-02-15T16:49:44;99602.59;;;7.52;46.29
29467;BME280;60968;37.490;-122.288;2023-02-15T16:52:46;99606.19;;;7.68;45.81
29467;BME280;60968;37.490;-122.288;2023-02-15T16:55:52;99603.78;;;8.00;42.64
29467;BME280;60968;37.490;-122.288;2023-02-15T16:58:55;99598.97;;;9.89;41.34
29467;BME280;60968;37.490;-122.288;2023-02-15T17:01:56;99591.56;;;15.15;32.63
29467;BME280;60968;37.490;-122.288;2023-02-15T17:05:23;99592.19;;;17.70;28.73
29467;BME280;60968;37.490;-122.288;2023-02-15T17:11:35;99591.59;;;17.08;28.64
29467;BME280;60968;37.490;-122.288;2023-02-15T17:14:40;99588.69;;;19.15;26.13
29467;BME280;60968;37.490;-122.288;2023-02-15T17:17:40;99588.66;;;19.59;25.00
29467;BME280;60968;37.490;-122.288;2023-02-15T17:20:42;99586.44;;;20.70;24.09
29467;BME280;60968;37.490;-122.288;2023-02-15T17:23:49;99591.69;;;21.45;21.98
29467;BME280;60968;37.490;-122.288;2023-02-15T17:26:54;99590.16;;;21.22;22.57
29467;BME280;60968;37.490;-122.288;2023-02-15T17:30:02;99596.59;;;21.35;20.85
29467;BME280;60968;37.490;-122.288;2023-02-15T17:33:04;99601.47;;;21.62;22.39
29467;BME280;60968;37.490;-122.288;2023-02-15T17:36:24;99603.78;;;21.51;20.89
29467;BME280;60968;37.490;-122.288;2023-02-15T17:39:27;99601.84;;;21.18;20.23
29467;BME280;60968;37.490;-122.288;2023-02-15T17:42:27;99597.56;;;21.15;20.22
29467;BME280;60968;37.490;-122.288;2023-02-15T17:45:34;99597.91;;;21.63;20.37
29467;BME280;60968;37.490;-122.288;2023-02-15T17:48:38;99598.97;;;21.22;20.50
29467;BME280;60968;37.490;-122.288;2023-02-15T17:51:40;99602.34;;;19.90;20.06
29467;BME280;60968;37.490;-122.288;2023-02-15T17:54:43;99608.38;;;17.32;22.38
29467;BME280;60968;37.490;-122.288;2023-02-15T17:57:46;99612.19;;;14.51;25.72
29467;BME280;60968;37.490;-122.288;2023-02-15T18:00:57;99599.44;;;13.35;26.60
29467;BME280;60968;37.490;-122.288;2023-02-15T18:04:00;99603.44;;;13.00;27.58
29467;BME280;60968;37.490;-122.288;2023-02-15T18:07:02;99609.72;;;12.17;25.65
29467;BME280;60968;37.490;-122.288;2023-02-15T18:10:24;99615.69;;;12.28;27.43
29467;BME280;60968;37.490;-122.288;2023-02-15T18:13:25;99620.00;;;12.32;27.52
29467;BME280;60968;37.490;-122.288;2023-02-15T18:16:29;99615.94;;;12.04;27.44
29467;BME280;60968;37.490;-122.288;2023-02-15T18:19:31;99616.88;;;11.98;27.37
29467;BME280;60968;37.490;-122.288;2023-02-15T18:22:32;99622.38;;;11.70;27.29
29467;BME280;60968;37.490;-122.288;2023-02-15T18:25:33;99620.75;;;11.54;26.75